KMGY

Dayton-Wright Brothers Airport

Dayton, Ohio, USA
METAR KMGY 231953Z AUTO 36011KT 10SM CLR 16/01 A3018 RMK AO2 SLP219 T01560006
Observed Flight Rules
Oct-23 @ 19:53 UTC (40 minutes ago) Visual Flight Rules
Wind Visibility Clouds
360° at 11 knots 10 miles
  • Clear skies
Temperatures Readings
Current 16°C / 61°F
Dewpoint 1°C / 34°F
Humidity 36%
Altimeter 30.18" Hg
Pressure 1021.9 hPa
Elevation 289
METAR KMGY 231953Z AUTO 36011KT 10SM CLR 16/01 A3018 RMK AO2 SLP219 T01560006
Observed Flight Rules
Oct-23 @ 19:53 UTC
(40 minutes ago)
VFR
Wind Visibility
360° at 11 knots 10 miles
Clouds
  • Clear skies
Temperature Dewpoint
16°C / 61°F 1°C / 34°F
Humidity Altimeter Pressure
36% 30.18" Hg 1021.9 hPa